sensor_id;sensor_type;location;lat;lon;timestamp;temperature;humidity
45983;DHT22;31711;47.158;7.346;2024-01-25T00:01:21;10.20;99.90
45983;DHT22;31711;47.158;7.346;2024-01-25T00:03:48;10.30;99.90
45983;DHT22;31711;47.158;7.346;2024-01-25T00:06:14;10.30;99.90
45983;DHT22;31711;47.158;7.346;2024-01-25T00:08:39;10.30;99.90
45983;DHT22;31711;47.158;7.346;2024-01-25T00:11:05;10.30;99.90
45983;DHT22;31711;47.158;7.346;2024-01-25T00:13:32;10.30;99.90
45983;DHT22;31711;47.158;7.346;2024-01-25T00:15:58;10.30;99.90
45983;DHT22;31711;47.158;7.346;2024-01-25T00:18:24;10.30;99.90
45983;DHT22;31711;47.158;7.346;2024-01-25T00:20:50;10.30;99.90
45983;DHT22;31711;47.158;7.346;2024-01-25T00:23:16;10.30;99.90
45983;DHT22;31711;47.158;7.346;2024-01-25T00:25:42;10.30;99.90
45983;DHT22;31711;47.158;7.346;2024-01-25T00:28:08;10.30;99.90
45983;DHT22;31711;47.158;7.346;2024-01-25T00:30:34;10.30;99.90
45983;DHT22;31711;47.158;7.346;2024-01-25T00:33:00;10.30;99.90
45983;DHT22;31711;47.158;7.346;2024-01-25T00:35:27;10.30;99.90
45983;DHT22;31711;47.158;7.346;2024-01-25T00:37:53;10.30;99.90
45983;DHT22;31711;47.158;7.346;2024-01-25T00:40:20;10.40;99.90
45983;DHT22;31711;47.158;7.346;2024-01-25T00:42:47;10.40;99.90
45983;DHT22;31711;47.158;7.346;2024-01-25T00:45:23;10.40;99.90
45983;DHT22;31711;47.158;7.346;2024-01-25T00:47:50;10.40;99.90
45983;DHT22;31711;47.158;7.346;2024-01-25T00:50:17;10.40;99.90
45983;DHT22;31711;47.158;7.346;2024-01-25T00:52:45;10.40;99.90
45983;DHT22;31711;47.158;7.346;2024-01-25T00:55:11;10.40;99.90
45983;DHT22;31711;47.158;7.346;2024-01-25T00:57:38;10.40;99.90
45983;DHT22;31711;47.158;7.346;2024-01-25T01:00:04;10.40;99.90
45983;DHT22;31711;47.158;7.346;2024-01-25T01:02:35;10.50;99.90
45983;DHT22;31711;47.158;7.346;2024-01-25T01:05:01;10.50;99.90
45983;DHT22;31711;47.158;7.346;2024-01-25T01:07:27;10.50;99.90
45983;DHT22;31711;47.158;7.346;2024-01-25T01:09:53;10.60;99.90
45983;DHT22;31711;47.158;7.346;2024-01-25T01:12:19;10.60;99.90
45983;DHT22;31711;47.158;7.346;2024-01-25T01:14:45;10.60;99.90
45983;DHT22;31711;47.158;7.346;2024-01-25T01:17:11;10.60;99.90
45983;DHT22;31711;47.158;7.346;2024-01-25T01:19:37;10.60;99.90
45983;DHT22;31711;47.158;7.346;2024-01-25T01:22:03;10.60;99.90
45983;DHT22;31711;47.158;7.346;2024-01-25T01:24:29;10.60;99.90
45983;DHT22;31711;47.158;7.346;2024-01-25T01:26:55;10.60;99.90
45983;DHT22;31711;47.158;7.346;2024-01-25T01:29:21;10.60;99.90
45983;DHT22;31711;47.158;7.346;2024-01-25T01:31:47;10.60;99.90
45983;DHT22;31711;47.158;7.346;2024-01-25T01:34:13;10.60;99.90
45983;DHT22;31711;47.158;7.346;2024-01-25T01:36:39;10.60;99.90
45983;DHT22;31711;47.158;7.346;2024-01-25T01:39:05;10.60;99.90
45983;DHT22;31711;47.158;7.346;2024-01-25T01:41:34;10.60;99.90
45983;DHT22;31711;47.158;7.346;2024-01-25T01:44:00;10.60;99.90
45983;DHT22;31711;47.158;7.346;2024-01-25T01:46:36;10.50;99.90
45983;DHT22;31711;47.158;7.346;2024-01-25T01:49:13;10.50;99.90
45983;DHT22;31711;47.158;7.346;2024-01-25T01:51:42;10.40;99.90
45983;DHT22;31711;47.158;7.346;2024-01-25T01:54:09;10.40;99.90
45983;DHT22;31711;47.158;7.346;2024-01-25T01:56:36;10.40;99.90
45983;DHT22;31711;47.158;7.346;2024-01-25T01:59:07;10.40;99.90
45983;DHT22;31711;47.158;7.346;2024-01-25T02:01:34;10.40;99.90
45983;DHT22;31711;47.158;7.346;2024-01-25T02:04:00;10.50;99.90
45983;DHT22;31711;47.158;7.346;2024-01-25T02:06:26;10.40;99.90
45983;DHT22;31711;47.158;7.346;2024-01-25T02:08:52;10.40;99.90
45983;DHT22;31711;47.158;7.346;2024-01-25T02:11:27;10.40;99.90
45983;DHT22;31711;47.158;7.346;2024-01-25T02:13:53;10.40;99.90
45983;DHT22;31711;47.158;7.346;2024-01-25T02:16:20;10.30;99.90
45983;DHT22;31711;47.158;7.346;2024-01-25T02:18:46;10.30;99.90
45983;DHT22;31711;47.158;7.346;2024-01-25T02:21:13;10.30;99.90
45983;DHT22;31711;47.158;7.346;2024-01-25T02:23:39;10.30;99.90
45983;DHT22;31711;47.158;7.346;2024-01-25T02:26:05;10.30;99.90
45983;DHT22;31711;47.158;7.346;2024-01-25T02:28:31;10.30;99.90
45983;DHT22;31711;47.158;7.346;2024-01-25T02:30:59;10.30;99.90
45983;DHT22;31711;47.158;7.346;2024-01-25T02:33:25;10.30;99.90
45983;DHT22;31711;47.158;7.346;2024-01-25T02:35:51;10.30;99.90
45983;DHT22;31711;47.158;7.346;2024-01-25T02:38:17;10.30;99.90
45983;DHT22;31711;47.158;7.346;2024-01-25T02:40:43;10.40;99.90
45983;DHT22;31711;47.158;7.346;2024-01-25T02:43:09;10.30;99.90
45983;DHT22;31711;47.158;7.346;2024-01-25T02:45:35;10.30;99.90
45983;DHT22;31711;47.158;7.346;2024-01-25T02:48:01;10.30;99.90
45983;DHT22;31711;47.158;7.346;2024-01-25T02:50:29;10.30;99.90
45983;DHT22;31711;47.158;7.346;2024-01-25T02:52:55;10.30;99.90
45983;DHT22;31711;47.158;7.346;2024-01-25T02:55:21;10.20;99.90
45983;DHT22;31711;47.158;7.346;2024-01-25T02:57:47;10.20;99.90
45983;DHT22;31711;47.158;7.346;2024-01-25T03:00:13;10.20;99.90
45983;DHT22;31711;47.158;7.346;2024-01-25T03:02:39;10.20;99.90
45983;DHT22;31711;47.158;7.346;2024-01-25T03:05:05;10.20;99.90
45983;DHT22;31711;47.158;7.346;2024-01-25T03:07:31;10.20;99.90
45983;DHT22;31711;47.158;7.346;2024-01-25T03:09:57;10.20;99.90
45983;DHT22;31711;47.158;7.346;2024-01-25T03:12:23;10.10;99.90
45983;DHT22;31711;47.158;7.346;2024-01-25T03:14:50;10.10;99.90
45983;DHT22;31711;47.158;7.346;2024-01-25T03:17:16;10.10;99.90
45983;DHT22;31711;47.158;7.346;2024-01-25T03:19:42;10.00;99.90
45983;DHT22;31711;47.158;7.346;2024-01-25T03:22:08;9.90;99.90
45983;DHT22;31711;47.158;7.346;2024-01-25T03:24:37;9.90;99.90
45983;DHT22;31711;47.158;7.346;2024-01-25T03:27:04;9.90;99.90
45983;DHT22;31711;47.158;7.346;2024-01-25T03:29:30;9.90;99.90
45983;DHT22;31711;47.158;7.346;2024-01-25T03:31:57;9.90;99.90
45983;DHT22;31711;47.158;7.346;2024-01-25T03:34:23;9.90;99.90
45983;DHT22;31711;47.158;7.346;2024-01-25T03:36:49;9.90;99.90
45983;DHT22;31711;47.158;7.346;2024-01-25T03:39:16;9.90;99.90
45983;DHT22;31711;47.158;7.346;2024-01-25T03:41:43;10.00;99.90
45983;DHT22;31711;47.158;7.346;2024-01-25T03:44:09;9.90;99.90
45983;DHT22;31711;47.158;7.346;2024-01-25T03:46:35;10.00;99.90
45983;DHT22;31711;47.158;7.346;2024-01-25T03:49:00;10.00;99.90
45983;DHT22;31711;47.158;7.346;2024-01-25T03:51:26;10.00;99.90
45983;DHT22;31711;47.158;7.346;2024-01-25T03:53:52;10.00;99.90
45983;DHT22;31711;47.158;7.346;2024-01-25T03:56:20;10.00;99.90
45983;DHT22;31711;47.158;7.346;2024-01-25T03:58:48;10.00;99.90
45983;DHT22;31711;47.158;7.346;2024-01-25T04:01:14;9.90;99.90
45983;DHT22;31711;47.158;7.346;2024-01-25T04:03:40;10.00;99.90
45983;DHT22;31711;47.158;7.346;2024-01-25T04:06:07;10.00;99.90
45983;DHT22;31711;47.158;7.346;2024-01-25T04:08:33;10.00;99.90
45983;DHT22;31711;47.158;7.346;2024-01-25T04:10:58;10.00;99.90
45983;DHT22;31711;47.158;7.346;2024-01-25T04:13:24;10.10;99.90
45983;DHT22;31711;47.158;7.346;2024-01-25T04:15:50;10.10;99.90
45983;DHT22;31711;47.158;7.346;2024-01-25T04:18:16;10.10;99.90
45983;DHT22;31711;47.158;7.346;2024-01-25T04:20:44;10.10;99.90
45983;DHT22;31711;47.158;7.346;2024-01-25T04:23:10;10.00;99.90
45983;DHT22;31711;47.158;7.346;2024-01-25T04:25:36;9.90;99.90
45983;DHT22;31711;47.158;7.346;2024-01-25T04:28:02;9.80;99.90
45983;DHT22;31711;47.158;7.346;2024-01-25T04:30:28;9.60;99.90
45983;DHT22;31711;47.158;7.346;2024-01-25T04:32:54;9.50;99.90
45983;DHT22;31711;47.158;7.346;2024-01-25T04:35:20;9.50;99.90
45983;DHT22;31711;47.158;7.346;2024-01-25T04:37:46;9.40;99.90
45983;DHT22;31711;47.158;7.346;2024-01-25T04:40:12;9.30;99.90
45983;DHT22;31711;47.158;7.346;2024-01-25T04:42:38;9.30;99.90
45983;DHT22;31711;47.158;7.346;2024-01-25T04:45:04;9.30;99.90
45983;DHT22;31711;47.158;7.346;2024-01-25T04:47:30;9.30;99.90
45983;DHT22;31711;47.158;7.346;2024-01-25T04:49:56;9.20;99.90
45983;DHT22;31711;47.158;7.346;2024-01-25T04:52:22;9.20;99.90
45983;DHT22;31711;47.158;7.346;2024-01-25T04:54:48;9.20;99.90
45983;DHT22;31711;47.158;7.346;2024-01-25T04:57:14;9.30;99.90
45983;DHT22;31711;47.158;7.346;2024-01-25T04:59:40;9.30;99.90
45983;DHT22;31711;47.158;7.346;2024-01-25T05:02:06;9.30;99.90
45983;DHT22;31711;47.158;7.346;2024-01-25T05:04:32;9.30;99.90
45983;DHT22;31711;47.158;7.346;2024-01-25T05:07:00;9.30;99.90
45983;DHT22;31711;47.158;7.346;2024-01-25T05:09:26;9.20;99.90
45983;DHT22;31711;47.158;7.346;2024-01-25T05:11:52;9.20;99.90
45983;DHT22;31711;47.158;7.346;2024-01-25T05:14:18;9.20;99.90
45983;DHT22;31711;47.158;7.346;2024-01-25T05:16:44;9.20;99.90
45983;DHT22;31711;47.158;7.346;2024-01-25T05:19:10;9.20;99.90
45983;DHT22;31711;47.158;7.346;2024-01-25T05:21:36;9.30;99.90
45983;DHT22;31711;47.158;7.346;2024-01-25T05:24:02;9.30;99.90
45983;DHT22;31711;47.158;7.346;2024-01-25T05:26:28;9.30;99.90
45983;DHT22;31711;47.158;7.346;2024-01-25T05:28:54;9.30;99.90
45983;DHT22;31711;47.158;7.346;2024-01-25T05:31:20;9.30;99.90
45983;DHT22;31711;47.158;7.346;2024-01-25T05:33:46;9.20;99.90
45983;DHT22;31711;47.158;7.346;2024-01-25T05:36:12;9.30;99.90
45983;DHT22;31711;47.158;7.346;2024-01-25T05:38:39;9.30;99.90
45983;DHT22;31711;47.158;7.346;2024-01-25T05:41:05;9.30;99.90
45983;DHT22;31711;47.158;7.346;2024-01-25T05:43:32;9.30;99.90
45983;DHT22;31711;47.158;7.346;2024-01-25T05:45:58;9.30;99.90
45983;DHT22;31711;47.158;7.346;2024-01-25T05:48:24;9.20;99.90
45983;DHT22;31711;47.158;7.346;2024-01-25T05:50:50;9.20;99.90
45983;DHT22;31711;47.158;7.346;2024-01-25T05:53:16;9.20;99.90
45983;DHT22;31711;47.158;7.346;2024-01-25T05:55:45;9.20;99.90
45983;DHT22;31711;47.158;7.346;2024-01-25T05:58:11;9.30;99.90
45983;DHT22;31711;47.158;7.346;2024-01-25T06:00:37;9.30;99.90
45983;DHT22;31711;47.158;7.346;2024-01-25T06:03:04;9.30;99.90
45983;DHT22;31711;47.158;7.346;2024-01-25T06:05:30;9.30;99.90
45983;DHT22;31711;47.158;7.346;2024-01-25T06:07:56;9.30;99.90
45983;DHT22;31711;47.158;7.346;2024-01-25T06:10:22;9.20;99.90
45983;DHT22;31711;47.158;7.346;2024-01-25T06:12:48;9.20;99.90
45983;DHT22;31711;47.158;7.346;2024-01-25T06:15:14;9.20;99.90
45983;DHT22;31711;47.158;7.346;2024-01-25T06:17:40;9.30;99.90
45983;DHT22;31711;47.158;7.346;2024-01-25T06:20:06;9.20;99.90
45983;DHT22;31711;47.158;7.346;2024-01-25T06:22:32;9.30;99.90
45983;DHT22;31711;47.158;7.346;2024-01-25T06:24:58;9.20;99.90
45983;DHT22;31711;47.158;7.346;2024-01-25T06:27:24;9.20;99.90
45983;DHT22;31711;47.158;7.346;2024-01-25T06:29:50;9.20;99.90
45983;DHT22;31711;47.158;7.346;2024-01-25T06:32:16;9.30;99.90
45983;DHT22;31711;47.158;7.346;2024-01-25T06:34:42;9.30;99.90
45983;DHT22;31711;47.158;7.346;2024-01-25T06:37:08;9.20;99.90
45983;DHT22;31711;47.158;7.346;2024-01-25T06:39:35;9.20;99.90
45983;DHT22;31711;47.158;7.346;2024-01-25T06:42:01;9.20;99.90
45983;DHT22;31711;47.158;7.346;2024-01-25T06:44:28;9.20;99.90
45983;DHT22;31711;47.158;7.346;2024-01-25T06:46:54;9.30;99.90
45983;DHT22;31711;47.158;7.346;2024-01-25T06:49:20;9.30;99.90
45983;DHT22;31711;47.158;7.346;2024-01-25T06:51:45;9.30;99.90
45983;DHT22;31711;47.158;7.346;2024-01-25T06:54:11;9.30;99.90
45983;DHT22;31711;47.158;7.346;2024-01-25T06:56:37;9.30;99.90
45983;DHT22;31711;47.158;7.346;2024-01-25T06:59:03;9.30;99.90
45983;DHT22;31711;47.158;7.346;2024-01-25T07:01:29;9.30;99.90
45983;DHT22;31711;47.158;7.346;2024-01-25T07:03:56;9.30;99.90
45983;DHT22;31711;47.158;7.346;2024-01-25T07:06:22;9.30;99.90
45983;DHT22;31711;47.158;7.346;2024-01-25T07:08:48;9.30;99.90
45983;DHT22;31711;47.158;7.346;2024-01-25T07:11:14;9.30;99.90
45983;DHT22;31711;47.158;7.346;2024-01-25T07:13:41;9.30;99.90
45983;DHT22;31711;47.158;7.346;2024-01-25T07:16:07;9.20;99.90
45983;DHT22;31711;47.158;7.346;2024-01-25T07:18:33;9.20;99.90
45983;DHT22;31711;47.158;7.346;2024-01-25T07:20:58;9.20;99.90
45983;DHT22;31711;47.158;7.346;2024-01-25T07:23:24;9.20;99.90
45983;DHT22;31711;47.158;7.346;2024-01-25T07:25:52;9.20;99.90
45983;DHT22;31711;47.158;7.346;2024-01-25T07:28:19;9.20;99.90
45983;DHT22;31711;47.158;7.346;2024-01-25T07:30:47;9.20;99.90
45983;DHT22;31711;47.158;7.346;2024-01-25T07:33:13;9.20;99.90
45983;DHT22;31711;47.158;7.346;2024-01-25T07:35:39;9.30;99.90
45983;DHT22;31711;47.158;7.346;2024-01-25T07:38:17;9.20;99.90
45983;DHT22;31711;47.158;7.346;2024-01-25T07:40:44;9.30;99.90
45983;DHT22;31711;47.158;7.346;2024-01-25T07:43:10;9.30;99.90
45983;DHT22;31711;47.158;7.346;2024-01-25T07:45:36;9.40;99.90
45983;DHT22;31711;47.158;7.346;2024-01-25T07:48:02;9.40;99.90
45983;DHT22;31711;47.158;7.346;2024-01-25T07:50:28;9.50;99.90
45983;DHT22;31711;47.158;7.346;2024-01-25T07:52:55;9.50;99.90
45983;DHT22;31711;47.158;7.346;2024-01-25T07:55:21;9.60;99.90
45983;DHT22;31711;47.158;7.346;2024-01-25T07:57:46;9.70;99.90
45983;DHT22;31711;47.158;7.346;2024-01-25T08:00:13;9.70;99.90
45983;DHT22;31711;47.158;7.346;2024-01-25T08:02:39;9.70;99.90
45983;DHT22;31711;47.158;7.346;2024-01-25T08:05:07;9.80;99.90
45983;DHT22;31711;47.158;7.346;2024-01-25T08:07:33;9.90;99.90
45983;DHT22;31711;47.158;7.346;2024-01-25T08:09:59;10.00;99.90
45983;DHT22;31711;47.158;7.346;2024-01-25T08:12:25;10.10;99.90
45983;DHT22;31711;47.158;7.346;2024-01-25T08:14:52;10.20;99.90
45983;DHT22;31711;47.158;7.346;2024-01-25T08:17:18;10.30;99.90
45983;DHT22;31711;47.158;7.346;2024-01-25T08:19:45;10.40;99.90
45983;DHT22;31711;47.158;7.346;2024-01-25T08:22:12;10.50;99.90
45983;DHT22;31711;47.158;7.346;2024-01-25T08:24:41;10.60;99.90
45983;DHT22;31711;47.158;7.346;2024-01-25T08:27:07;10.70;99.90
45983;DHT22;31711;47.158;7.346;2024-01-25T08:29:33;10.80;99.90
45983;DHT22;31711;47.158;7.346;2024-01-25T08:31:59;10.90;99.90
45983;DHT22;31711;47.158;7.346;2024-01-25T08:34:25;11.00;99.90
45983;DHT22;31711;47.158;7.346;2024-01-25T08:36:51;11.00;99.90
45983;DHT22;31711;47.158;7.346;2024-01-25T08:39:17;11.00;99.90
45983;DHT22;31711;47.158;7.346;2024-01-25T08:41:43;11.00;99.90
45983;DHT22;31711;47.158;7.346;2024-01-25T08:44:11;11.00;99.90
45983;DHT22;31711;47.158;7.346;2024-01-25T08:46:37;11.00;99.90
45983;DHT22;31711;47.158;7.346;2024-01-25T08:49:03;11.10;99.90
45983;DHT22;31711;47.158;7.346;2024-01-25T08:51:34;11.10;99.90
45983;DHT22;31711;47.158;7.346;2024-01-25T08:54:00;11.10;99.90
45983;DHT22;31711;47.158;7.346;2024-01-25T08:56:30;11.20;99.90
45983;DHT22;31711;47.158;7.346;2024-01-25T08:58:56;11.20;99.90
45983;DHT22;31711;47.158;7.346;2024-01-25T09:01:34;11.20;99.90
45983;DHT22;31711;47.158;7.346;2024-01-25T09:04:17;11.20;99.90
45983;DHT22;31711;47.158;7.346;2024-01-25T09:07:16;11.30;99.90
45983;DHT22;31711;47.158;7.346;2024-01-25T09:09:42;11.30;99.90
45983;DHT22;31711;47.158;7.346;2024-01-25T09:12:08;11.50;99.90
45983;DHT22;31711;47.158;7.346;2024-01-25T09:14:37;11.50;99.90
45983;DHT22;31711;47.158;7.346;2024-01-25T09:17:03;11.50;99.90
45983;DHT22;31711;47.158;7.346;2024-01-25T09:19:29;11.50;99.90
45983;DHT22;31711;47.158;7.346;2024-01-25T09:21:55;11.60;99.90
45983;DHT22;31711;47.158;7.346;2024-01-25T09:24:23;11.80;99.90
45983;DHT22;31711;47.158;7.346;2024-01-25T09:26:49;11.70;99.90
45983;DHT22;31711;47.158;7.346;2024-01-25T09:29:15;11.70;99.90
45983;DHT22;31711;47.158;7.346;2024-01-25T09:31:41;11.60;99.90
45983;DHT22;31711;47.158;7.346;2024-01-25T09:34:07;11.50;99.90
45983;DHT22;31711;47.158;7.346;2024-01-25T09:36:33;11.50;99.90
45983;DHT22;31711;47.158;7.346;2024-01-25T09:38:59;11.60;99.90
45983;DHT22;31711;47.158;7.346;2024-01-25T09:41:25;11.60;99.90
45983;DHT22;31711;47.158;7.346;2024-01-25T09:43:52;11.50;99.90
45983;DHT22;31711;47.158;7.346;2024-01-25T09:46:19;11.50;99.90
45983;DHT22;31711;47.158;7.346;2024-01-25T09:48:45;11.50;99.90
45983;DHT22;31711;47.158;7.346;2024-01-25T09:51:13;11.70;99.90
45983;DHT22;31711;47.158;7.346;2024-01-25T09:53:40;11.70;99.90
45983;DHT22;31711;47.158;7.346;2024-01-25T09:56:11;11.60;99.90
45983;DHT22;31711;47.158;7.346;2024-01-25T09:58:42;11.70;99.90
45983;DHT22;31711;47.158;7.346;2024-01-25T10:01:13;11.70;99.90
45983;DHT22;31711;47.158;7.346;2024-01-25T10:03:47;11.80;99.90
45983;DHT22;31711;47.158;7.346;2024-01-25T10:06:14;11.90;99.90
45983;DHT22;31711;47.158;7.346;2024-01-25T10:08:40;12.10;99.90
45983;DHT22;31711;47.158;7.346;2024-01-25T10:11:06;12.20;99.90
45983;DHT22;31711;47.158;7.346;2024-01-25T10:13:54;12.30;99.90
45983;DHT22;31711;47.158;7.346;2024-01-25T10:16:22;12.60;99.90
45983;DHT22;31711;47.158;7.346;2024-01-25T10:18:48;12.80;99.90
45983;DHT22;31711;47.158;7.346;2024-01-25T10:21:15;12.90;99.90
45983;DHT22;31711;47.158;7.346;2024-01-25T10:23:44;13.00;99.90
45983;DHT22;31711;47.158;7.346;2024-01-25T10:26:13;13.00;99.90
45983;DHT22;31711;47.158;7.346;2024-01-25T10:28:40;12.90;99.90
45983;DHT22;31711;47.158;7.346;2024-01-25T10:31:06;12.90;99.90
45983;DHT22;31711;47.158;7.346;2024-01-25T10:33:33;12.90;99.90
45983;DHT22;31711;47.158;7.346;2024-01-25T10:36:02;13.10;99.90
45983;DHT22;31711;47.158;7.346;2024-01-25T10:38:34;13.20;99.90
45983;DHT22;31711;47.158;7.346;2024-01-25T10:41:04;13.30;99.90
45983;DHT22;31711;47.158;7.346;2024-01-25T10:43:31;13.50;99.90
45983;DHT22;31711;47.158;7.346;2024-01-25T10:45:58;13.60;99.90
45983;DHT22;31711;47.158;7.346;2024-01-25T10:48:25;13.70;99.90
45983;DHT22;31711;47.158;7.346;2024-01-25T10:50:55;13.90;99.90
45983;DHT22;31711;47.158;7.346;2024-01-25T10:53:23;14.00;99.90
45983;DHT22;31711;47.158;7.346;2024-01-25T10:55:50;14.00;99.90
45983;DHT22;31711;47.158;7.346;2024-01-25T10:58:17;14.10;99.90
45983;DHT22;31711;47.158;7.346;2024-01-25T11:00:55;14.10;99.90
45983;DHT22;31711;47.158;7.346;2024-01-25T11:03:28;14.20;99.90
45983;DHT22;31711;47.158;7.346;2024-01-25T11:06:06;14.20;99.90
45983;DHT22;31711;47.158;7.346;2024-01-25T11:08:33;13.90;99.90
45983;DHT22;31711;47.158;7.346;2024-01-25T11:11:00;14.00;99.90
45983;DHT22;31711;47.158;7.346;2024-01-25T11:13:27;13.90;99.90
45983;DHT22;31711;47.158;7.346;2024-01-25T11:15:53;14.10;99.90
45983;DHT22;31711;47.158;7.346;2024-01-25T11:18:19;14.30;99.90
45983;DHT22;31711;47.158;7.346;2024-01-25T11:20:47;14.10;99.90
45983;DHT22;31711;47.158;7.346;2024-01-25T11:23:16;14.20;99.90
45983;DHT22;31711;47.158;7.346;2024-01-25T11:25:45;14.30;99.90
45983;DHT22;31711;47.158;7.346;2024-01-25T11:28:15;14.30;99.90
45983;DHT22;31711;47.158;7.346;2024-01-25T11:30:43;14.30;99.90
45983;DHT22;31711;47.158;7.346;2024-01-25T11:33:10;14.50;99.90
45983;DHT22;31711;47.158;7.346;2024-01-25T11:35:37;14.60;99.90
45983;DHT22;31711;47.158;7.346;2024-01-25T11:38:03;14.70;99.90
45983;DHT22;31711;47.158;7.346;2024-01-25T11:40:29;14.70;99.90
45983;DHT22;31711;47.158;7.346;2024-01-25T11:42:57;14.70;99.90
45983;DHT22;31711;47.158;7.346;2024-01-25T11:45:23;14.60;99.90
45983;DHT22;31711;47.158;7.346;2024-01-25T11:47:49;14.50;99.90
45983;DHT22;31711;47.158;7.346;2024-01-25T11:50:16;14.50;99.90
45983;DHT22;31711;47.158;7.346;2024-01-25T11:52:42;14.50;99.90
45983;DHT22;31711;47.158;7.346;2024-01-25T11:55:09;14.60;99.90
45983;DHT22;31711;47.158;7.346;2024-01-25T11:57:38;14.70;99.90
45983;DHT22;31711;47.158;7.346;2024-01-25T12:00:08;14.80;99.90
45983;DHT22;31711;47.158;7.346;2024-01-25T12:02:36;14.90;99.90
45983;DHT22;31711;47.158;7.346;2024-01-25T12:05:03;14.90;99.90
45983;DHT22;31711;47.158;7.346;2024-01-25T12:07:33;14.80;99.90
45983;DHT22;31711;47.158;7.346;2024-01-25T12:10:07;14.80;99.90
45983;DHT22;31711;47.158;7.346;2024-01-25T12:12:35;14.70;99.90
45983;DHT22;31711;47.158;7.346;2024-01-25T12:15:05;14.60;99.90
45983;DHT22;31711;47.158;7.346;2024-01-25T12:17:34;14.50;99.90
45983;DHT22;31711;47.158;7.346;2024-01-25T12:20:05;14.50;99.90
45983;DHT22;31711;47.158;7.346;2024-01-25T12:22:37;14.60;99.90
45983;DHT22;31711;47.158;7.346;2024-01-25T12:25:09;14.50;99.90
45983;DHT22;31711;47.158;7.346;2024-01-25T12:27:39;14.40;99.90
45983;DHT22;31711;47.158;7.346;2024-01-25T12:30:07;14.40;99.90
45983;DHT22;31711;47.158;7.346;2024-01-25T12:32:34;14.40;99.90
45983;DHT22;31711;47.158;7.346;2024-01-25T12:35:01;14.50;99.90
45983;DHT22;31711;47.158;7.346;2024-01-25T12:37:27;14.50;99.90
45983;DHT22;31711;47.158;7.346;2024-01-25T12:39:54;14.50;99.90
45983;DHT22;31711;47.158;7.346;2024-01-25T12:42:21;14.40;99.90
45983;DHT22;31711;47.158;7.346;2024-01-25T12:44:47;14.30;99.90
45983;DHT22;31711;47.158;7.346;2024-01-25T12:47:14;14.30;99.90
45983;DHT22;31711;47.158;7.346;2024-01-25T12:49:41;14.30;99.90
45983;DHT22;31711;47.158;7.346;2024-01-25T12:52:12;14.30;99.90
45983;DHT22;31711;47.158;7.346;2024-01-25T12:54:39;14.20;99.90
45983;DHT22;31711;47.158;7.346;2024-01-25T12:57:05;14.00;99.90
45983;DHT22;31711;47.158;7.346;2024-01-25T12:59:35;13.90;99.90
45983;DHT22;31711;47.158;7.346;2024-01-25T13:02:02;14.10;99.90
45983;DHT22;31711;47.158;7.346;2024-01-25T13:04:28;14.10;99.90
45983;DHT22;31711;47.158;7.346;2024-01-25T13:06:55;14.10;99.90
45983;DHT22;31711;47.158;7.346;2024-01-25T13:09:22;14.10;99.90
45983;DHT22;31711;47.158;7.346;2024-01-25T13:11:48;14.20;99.90
45983;DHT22;31711;47.158;7.346;2024-01-25T13:14:14;14.20;99.90
45983;DHT22;31711;47.158;7.346;2024-01-25T13:16:40;14.30;99.90
45983;DHT22;31711;47.158;7.346;2024-01-25T13:19:06;14.40;99.90
45983;DHT22;31711;47.158;7.346;2024-01-25T13:21:32;14.40;99.90
45983;DHT22;31711;47.158;7.346;2024-01-25T13:24:00;14.50;99.90
45983;DHT22;31711;47.158;7.346;2024-01-25T13:26:29;14.60;99.90
45983;DHT22;31711;47.158;7.346;2024-01-25T13:28:54;14.70;99.90
45983;DHT22;31711;47.158;7.346;2024-01-25T13:31:21;14.80;99.90
45983;DHT22;31711;47.158;7.346;2024-01-25T13:33:47;14.80;99.90
45983;DHT22;31711;47.158;7.346;2024-01-25T13:36:13;14.80;99.90
45983;DHT22;31711;47.158;7.346;2024-01-25T13:38:43;14.90;99.90
45983;DHT22;31711;47.158;7.346;2024-01-25T13:41:09;14.90;99.90
45983;DHT22;31711;47.158;7.346;2024-01-25T13:43:35;14.90;99.90
45983;DHT22;31711;47.158;7.346;2024-01-25T13:46:01;14.80;99.90
45983;DHT22;31711;47.158;7.346;2024-01-25T13:48:27;14.90;99.90
45983;DHT22;31711;47.158;7.346;2024-01-25T13:50:53;14.70;99.90
45983;DHT22;31711;47.158;7.346;2024-01-25T13:53:19;14.70;99.90
45983;DHT22;31711;47.158;7.346;2024-01-25T13:55:45;14.90;99.90
45983;DHT22;31711;47.158;7.346;2024-01-25T13:58:11;14.90;99.90
45983;DHT22;31711;47.158;7.346;2024-01-25T14:00:37;14.70;99.90
45983;DHT22;31711;47.158;7.346;2024-01-25T14:03:03;14.60;99.90
45983;DHT22;31711;47.158;7.346;2024-01-25T14:05:29;14.50;99.90
45983;DHT22;31711;47.158;7.346;2024-01-25T14:07:57;14.30;99.90
45983;DHT22;31711;47.158;7.346;2024-01-25T14:10:25;14.30;99.90
45983;DHT22;31711;47.158;7.346;2024-01-25T14:12:53;14.30;99.90
45983;DHT22;31711;47.158;7.346;2024-01-25T14:15:19;14.20;99.90
45983;DHT22;31711;47.158;7.346;2024-01-25T14:17:45;14.10;99.90
45983;DHT22;31711;47.158;7.346;2024-01-25T14:20:11;14.00;99.90
45983;DHT22;31711;47.158;7.346;2024-01-25T14:22:38;14.10;99.90
45983;DHT22;31711;47.158;7.346;2024-01-25T14:25:05;14.00;99.90
45983;DHT22;31711;47.158;7.346;2024-01-25T14:27:31;14.00;99.90
45983;DHT22;31711;47.158;7.346;2024-01-25T14:29:58;13.80;99.90
45983;DHT22;31711;47.158;7.346;2024-01-25T14:32:26;13.80;99.90
45983;DHT22;31711;47.158;7.346;2024-01-25T14:34:52;13.90;99.90
45983;DHT22;31711;47.158;7.346;2024-01-25T14:37:18;13.90;99.90
45983;DHT22;31711;47.158;7.346;2024-01-25T14:39:43;13.80;99.90
45983;DHT22;31711;47.158;7.346;2024-01-25T14:42:10;13.80;99.90
45983;DHT22;31711;47.158;7.346;2024-01-25T14:44:42;13.70;99.90
45983;DHT22;31711;47.158;7.346;2024-01-25T14:47:08;13.60;99.90
45983;DHT22;31711;47.158;7.346;2024-01-25T14:49:35;13.60;99.90
45983;DHT22;31711;47.158;7.346;2024-01-25T14:52:01;13.50;99.90
45983;DHT22;31711;47.158;7.346;2024-01-25T14:54:27;13.40;99.90
45983;DHT22;31711;47.158;7.346;2024-01-25T14:56:53;13.40;99.90
45983;DHT22;31711;47.158;7.346;2024-01-25T14:59:19;13.40;99.90
45983;DHT22;31711;47.158;7.346;2024-01-25T15:01:48;13.30;99.90
45983;DHT22;31711;47.158;7.346;2024-01-25T15:04:14;13.20;99.90
45983;DHT22;31711;47.158;7.346;2024-01-25T15:06:42;13.20;99.90
45983;DHT22;31711;47.158;7.346;2024-01-25T15:09:09;13.20;99.90
45983;DHT22;31711;47.158;7.346;2024-01-25T15:11:35;13.20;99.90
45983;DHT22;31711;47.158;7.346;2024-01-25T15:14:01;13.10;99.90
45983;DHT22;31711;47.158;7.346;2024-01-25T15:16:27;13.10;99.90
45983;DHT22;31711;47.158;7.346;2024-01-25T15:18:57;13.10;99.90
45983;DHT22;31711;47.158;7.346;2024-01-25T15:21:23;13.00;99.90
45983;DHT22;31711;47.158;7.346;2024-01-25T15:23:49;12.90;99.90
45983;DHT22;31711;47.158;7.346;2024-01-25T15:26:15;12.90;99.90
45983;DHT22;31711;47.158;7.346;2024-01-25T15:28:41;12.90;99.90
45983;DHT22;31711;47.158;7.346;2024-01-25T15:31:07;12.90;99.90
45983;DHT22;31711;47.158;7.346;2024-01-25T15:33:36;12.90;99.90